Time;durP1;ratioP1;P1;durP2;ratioP2;P2;SDS_P1;SDS_P2;PMS_P1;PMS_P2;Temp;Humidity;BMP_temperature;BMP_pressure;BME280_temperature;BME280_humidity;BME280_pressure;Samples;Min_cycle;Max_cycle;Signal;HPM_P1;HPM_P2
2022/07/20 00:00:39;;;;;;;7.20;4.22;;;24.40;75.50;;;;;;5045673;28;20501;-67
2022/07/20 00:03:07;;;;;;;5.03;3.45;;;24.30;76.00;;;;;;5045105;28;20045;-67
2022/07/20 00:05:33;;;;;;;8.70;4.10;;;24.30;76.30;;;;;;5049522;28;20048;-67
2022/07/20 00:07:59;;;;;;;6.72;4.13;;;24.20;76.30;;;;;;5064006;28;20084;-67
2022/07/20 00:13:09;;;;;;;7.53;4.68;;;24.10;75.60;;;;;;5049309;28;20064;-67
2022/07/20 00:15:35;;;;;;;7.90;4.28;;;24.00;75.30;;;;;;5060510;28;20049;-67
2022/07/20 00:18:00;;;;;;;9.90;4.63;;;24.00;75.30;;;;;;5064510;28;20056;-68
2022/07/20 00:20:26;;;;;;;9.25;4.18;;;24.00;75.40;;;;;;5048197;28;20048;-68
2022/07/20 00:22:53;;;;;;;7.28;4.00;;;24.00;75.70;;;;;;5046777;28;20052;-68
2022/07/20 00:25:18;;;;;;;7.80;4.18;;;23.90;76.00;;;;;;5049197;28;20063;-67
2022/07/20 00:27:44;;;;;;;7.72;4.18;;;23.90;76.70;;;;;;5047342;28;20056;-67
2022/07/20 00:30:11;;;;;;;8.18;4.20;;;23.90;76.70;;;;;;5049269;28;20053;-67
2022/07/20 00:32:37;;;;;;;5.47;4.20;;;23.80;76.90;;;;;;5066877;28;20053;-67
2022/07/20 00:35:05;;;;;;;9.30;4.18;;;23.70;77.80;;;;;;5048887;28;20060;-67
2022/07/20 00:37:31;;;;;;;6.07;4.20;;;23.60;78.30;;;;;;5046076;28;20064;-67
2022/07/20 00:39:57;;;;;;;8.50;4.32;;;23.50;78.60;;;;;;5064881;28;20053;-67
2022/07/20 00:42:22;;;;;;;9.23;4.68;;;23.40;79.70;;;;;;5066586;28;20049;-67
2022/07/20 00:44:48;;;;;;;5.57;4.35;;;23.30;80.00;;;;;;5066774;28;20103;-68
2022/07/20 00:47:14;;;;;;;7.93;3.95;;;23.30;79.40;;;;;;5046583;28;20119;-67
2022/07/20 00:49:39;;;;;;;6.53;4.30;;;23.20;78.80;;;;;;5048402;28;20048;-67
2022/07/20 00:52:05;;;;;;;7.03;4.45;;;23.30;78.00;;;;;;5048524;28;20044;-67
2022/07/20 00:54:31;;;;;;;7.40;4.18;;;23.20;78.50;;;;;;5062640;28;20045;-67
2022/07/20 00:56:57;;;;;;;7.68;4.15;;;23.20;79.00;;;;;;5047242;28;20084;-67
2022/07/20 00:59:23;;;;;;;7.85;4.20;;;23.20;79.20;;;;;;5046344;28;20037;-67
2022/07/20 01:01:48;;;;;;;7.45;3.97;;;23.10;79.60;;;;;;5044375;28;20071;-67
2022/07/20 01:04:14;;;;;;;7.30;4.55;;;23.00;80.40;;;;;;5031605;28;20041;-67
2022/07/20 01:06:40;;;;;;;9.18;4.13;;;23.00;80.10;;;;;;5048726;28;20057;-67
2022/07/20 01:09:06;;;;;;;7.75;4.75;;;23.00;80.00;;;;;;5065141;28;20044;-67
2022/07/20 01:11:33;;;;;;;7.90;4.50;;;22.90;79.80;;;;;;5048321;28;20109;-67
2022/07/20 01:14:07;;;;;;;11.00;4.10;;;22.90;80.00;;;;;;5047394;28;20110;-67
2022/07/20 01:16:34;;;;;;;5.38;4.10;;;22.80;82.10;;;;;;5047106;28;20051;-67
2022/07/20 01:19:00;;;;;;;7.30;4.85;;;22.60;83.00;;;;;;5066141;28;20097;-67
2022/07/20 01:21:26;;;;;;;12.32;4.78;;;22.60;81.60;;;;;;5045660;28;20045;-67
2022/07/20 01:23:52;;;;;;;6.88;4.45;;;22.60;81.10;;;;;;5047625;28;20049;-67
2022/07/20 01:26:19;;;;;;;6.53;4.40;;;22.60;80.60;;;;;;5042505;28;20409;-67
2022/07/20 01:28:45;;;;;;;10.05;4.80;;;22.50;81.90;;;;;;5066044;28;20059;-67
2022/07/20 01:31:12;;;;;;;8.75;4.70;;;22.40;83.30;;;;;;5042094;28;20387;-67
2022/07/20 01:33:37;;;;;;;5.45;3.83;;;22.20;84.90;;;;;;5046673;28;20421;-68
2022/07/20 01:36:03;;;;;;;7.00;4.13;;;22.10;85.00;;;;;;5047079;28;20049;-67
2022/07/20 01:38:29;;;;;;;8.02;4.43;;;22.00;86.00;;;;;;5047659;28;20531;-67
2022/07/20 01:40:55;;;;;;;8.65;4.35;;;21.90;86.40;;;;;;5063890;28;20049;-67
2022/07/20 01:43:20;;;;;;;6.47;4.72;;;21.80;87.40;;;;;;5044116;28;20048;-67
2022/07/20 01:45:46;;;;;;;8.93;4.72;;;21.60;87.90;;;;;;5047490;28;20081;-67
2022/07/20 01:48:12;;;;;;;6.93;4.18;;;21.60;88.60;;;;;;5048412;28;20112;-67
2022/07/20 01:50:39;;;;;;;6.70;4.63;;;21.50;89.10;;;;;;5047250;28;20076;-67
2022/07/20 01:53:06;;;;;;;9.05;4.47;;;21.40;89.70;;;;;;5065458;28;20443;-67
2022/07/20 01:55:32;;;;;;;6.47;4.72;;;21.40;89.30;;;;;;5046776;28;20053;-67
2022/07/20 01:57:57;;;;;;;5.15;4.07;;;21.50;88.30;;;;;;5031810;28;20045;-67
2022/07/20 02:00:23;;;;;;;7.68;4.50;;;21.50;87.30;;;;;;5063354;28;20066;-67
2022/07/20 02:02:50;;;;;;;8.93;4.53;;;21.60;86.00;;;;;;5047754;28;20044;-67
2022/07/20 02:05:16;;;;;;;8.45;4.97;;;21.60;85.50;;;;;;5046208;28;20048;-67
2022/07/20 02:07:42;;;;;;;8.00;4.30;;;21.70;84.40;;;;;;5045793;28;20065;-67
2022/07/20 02:10:10;;;;;;;7.93;4.82;;;21.80;84.10;;;;;;5044238;28;20047;-67
2022/07/20 02:12:36;;;;;;;7.63;4.68;;;21.80;83.90;;;;;;5046043;28;20497;-67
2022/07/20 02:15:07;;;;;;;7.82;4.63;;;21.80;83.60;;;;;;5030481;28;20116;-67
2022/07/20 02:17:33;;;;;;;7.80;4.95;;;21.80;83.70;;;;;;5047745;28;20135;-67
2022/07/20 02:19:58;;;;;;;7.93;4.72;;;21.80;84.10;;;;;;5047583;28;20045;-67
2022/07/20 02:22:24;;;;;;;8.10;4.95;;;21.80;84.60;;;;;;5046388;28;20123;-67
2022/07/20 02:24:50;;;;;;;7.95;4.70;;;21.70;85.50;;;;;;5045664;28;20048;-67
2022/07/20 02:27:16;;;;;;;8.30;4.85;;;21.60;86.70;;;;;;5043721;28;20124;-67
2022/07/20 02:29:42;;;;;;;6.07;4.60;;;21.50;87.10;;;;;;5064761;28;20033;-67
2022/07/20 02:32:07;;;;;;;7.60;4.70;;;21.50;87.80;;;;;;5047073;28;20037;-67
2022/07/20 02:34:33;;;;;;;7.13;4.82;;;21.40;87.60;;;;;;5046659;28;20052;-67
2022/07/20 02:36:59;;;;;;;5.55;4.47;;;21.30;88.50;;;;;;5030249;28;20128;-68
2022/07/20 02:39:24;;;;;;;8.55;4.50;;;21.20;89.40;;;;;;5041883;28;20072;-67
2022/07/20 02:41:50;;;;;;;6.93;4.25;;;21.10;89.60;;;;;;5062601;28;20044;-67
2022/07/20 02:44:16;;;;;;;7.03;4.70;;;21.00;90.30;;;;;;5044961;28;20053;-67
2022/07/20 02:46:42;;;;;;;9.25;5.05;;;21.00;90.40;;;;;;5046726;28;20081;-68
2022/07/20 02:49:07;;;;;;;7.80;4.22;;;21.00;90.60;;;;;;5046435;28;20076;-67
2022/07/20 02:51:33;;;;;;;6.50;4.80;;;20.90;90.80;;;;;;5044624;28;20105;-67
2022/07/20 02:53:59;;;;;;;5.57;4.40;;;20.80;91.00;;;;;;5046634;28;20060;-67
2022/07/20 02:56:25;;;;;;;5.47;4.45;;;20.80;90.60;;;;;;5060175;28;20983;-67
2022/07/20 02:58:50;;;;;;;5.80;4.22;;;20.80;90.60;;;;;;5046392;28;20067;-67
2022/07/20 03:01:16;;;;;;;7.80;4.72;;;20.80;90.80;;;;;;5046123;28;20037;-67
2022/07/20 03:03:42;;;;;;;8.23;4.65;;;20.80;91.10;;;;;;5046624;28;20029;-67
2022/07/20 03:06:09;;;;;;;5.93;4.38;;;20.70;90.90;;;;;;5064933;28;20033;-67
2022/07/20 03:08:35;;;;;;;9.55;4.53;;;20.60;91.20;;;;;;5046902;28;20036;-67
2022/07/20 03:11:01;;;;;;;5.75;4.65;;;20.60;91.20;;;;;;5046415;28;20049;-67
2022/07/20 03:13:26;;;;;;;8.65;5.20;;;20.50;91.30;;;;;;5042273;28;20052;-66
2022/07/20 03:15:52;;;;;;;9.40;5.13;;;20.30;91.30;;;;;;5063946;28;20429;-66
2022/07/20 03:18:18;;;;;;;6.95;4.70;;;20.10;91.40;;;;;;5064406;28;20045;-66
2022/07/20 03:20:44;;;;;;;6.50;5.07;;;20.00;91.90;;;;;;5046883;28;20045;-66
2022/07/20 03:23:10;;;;;;;8.20;4.88;;;19.90;92.30;;;;;;5043432;28;20057;-67
2022/07/20 03:25:36;;;;;;;8.05;5.30;;;19.80;92.50;;;;;;5046412;28;20075;-68
2022/07/20 03:28:01;;;;;;;7.32;5.57;;;19.60;93.90;;;;;;5046357;28;20052;-68
2022/07/20 03:30:28;;;;;;;8.15;5.35;;;19.50;93.80;;;;;;5062151;28;20087;-68
2022/07/20 03:32:54;;;;;;;7.55;4.82;;;19.50;93.70;;;;;;5037897;28;20124;-68
2022/07/20 03:35:21;;;;;;;8.80;4.70;;;19.50;93.70;;;;;;5059814;28;20044;-68
2022/07/20 03:37:47;;;;;;;6.13;4.45;;;19.40;94.10;;;;;;5048945;28;20077;-68
2022/07/20 03:40:13;;;;;;;7.97;5.20;;;19.30;94.60;;;;;;5047631;28;20132;-68
2022/07/20 03:42:39;;;;;;;7.15;4.63;;;19.30;95.00;;;;;;5051688;28;20046;-68
2022/07/20 03:45:05;;;;;;;7.38;4.57;;;19.30;95.00;;;;;;5050207;28;20053;-68
2022/07/20 03:47:31;;;;;;;8.40;5.05;;;19.20;95.10;;;;;;5042060;28;20084;-68
2022/07/20 03:49:57;;;;;;;8.20;4.68;;;19.10;95.30;;;;;;5055488;28;20053;-66
2022/07/20 03:52:23;;;;;;;6.75;4.93;;;19.00;95.50;;;;;;5050992;28;20063;-66
2022/07/20 03:54:49;;;;;;;10.88;5.70;;;18.90;95.70;;;;;;5041542;28;20068;-65
2022/07/20 03:57:14;;;;;;;9.98;4.70;;;18.90;95.80;;;;;;5042463;28;20045;-65
2022/07/20 03:59:40;;;;;;;9.32;5.20;;;18.90;96.20;;;;;;5052963;28;20041;-65
2022/07/20 04:02:06;;;;;;;5.55;4.90;;;18.80;96.70;;;;;;5054494;28;20469;-66
2022/07/20 04:04:32;;;;;;;5.93;4.70;;;18.80;96.90;;;;;;5051658;28;20045;-66
2022/07/20 04:06:58;;;;;;;11.43;5.13;;;18.90;97.20;;;;;;5048012;28;20057;-68
2022/07/20 04:12:09;;;;;;;8.05;4.97;;;19.00;97.40;;;;;;5044537;28;20405;-68
2022/07/20 04:14:35;;;;;;;8.52;5.20;;;19.00;97.20;;;;;;5044169;28;20046;-68
2022/07/20 04:17:00;;;;;;;9.48;5.45;;;19.10;97.20;;;;;;5042794;28;20053;-68
2022/07/20 04:19:26;;;;;;;8.10;5.32;;;19.20;97.10;;;;;;5044157;28;20037;-68
2022/07/20 04:21:56;;;;;;;8.60;5.50;;;19.30;97.20;;;;;;5050619;28;20045;-67
2022/07/20 04:24:23;;;;;;;8.82;5.20;;;19.30;96.70;;;;;;5049418;28;20049;-67
2022/07/20 04:26:48;;;;;;;7.13;4.47;;;19.40;96.50;;;;;;5043785;28;20049;-68
2022/07/20 04:29:14;;;;;;;8.48;5.25;;;19.50;96.60;;;;;;5046527;28;20394;-67
2022/07/20 04:31:40;;;;;;;7.68;5.20;;;19.60;95.90;;;;;;5044258;28;20045;-67
2022/07/20 04:34:06;;;;;;;7.18;5.38;;;19.70;96.00;;;;;;5041689;28;20045;-68
2022/07/20 04:36:31;;;;;;;6.05;4.65;;;19.80;95.40;;;;;;5050223;28;20061;-68
2022/07/20 04:38:57;;;;;;;8.52;5.40;;;19.80;95.30;;;;;;5065647;28;20049;-68
2022/07/20 04:41:23;;;;;;;11.20;5.22;;;19.90;94.90;;;;;;5058261;28;20079;-68
2022/07/20 04:43:49;;;;;;;7.25;4.70;;;20.00;95.60;;;;;;5072705;28;20040;-68
2022/07/20 04:46:15;;;;;;;10.48;5.32;;;20.00;96.10;;;;;;5060365;28;20068;-67
2022/07/20 04:48:41;;;;;;;8.85;5.20;;;20.10;95.40;;;;;;5063912;28;20033;-67
2022/07/20 04:51:06;;;;;;;7.97;4.63;;;20.10;95.20;;;;;;5074556;28;20101;-68
2022/07/20 04:53:32;;;;;;;9.38;4.82;;;20.20;95.10;;;;;;5064882;28;20091;-67
2022/07/20 04:55:58;;;;;;;7.18;4.40;;;20.30;95.20;;;;;;5041571;28;20053;-68
2022/07/20 04:58:23;;;;;;;6.47;4.72;;;20.30;94.80;;;;;;5057727;28;20048;-68
2022/07/20 05:00:49;;;;;;;8.23;4.78;;;20.50;93.60;;;;;;5063297;28;20068;-67
2022/07/20 05:03:14;;;;;;;7.45;5.20;;;20.60;92.70;;;;;;5052260;28;20049;-67
2022/07/20 05:05:40;;;;;;;9.07;5.05;;;20.80;92.00;;;;;;5038689;28;20050;-68
2022/07/20 05:08:06;;;;;;;6.88;4.95;;;21.00;91.00;;;;;;5066210;28;20076;-68
2022/07/20 05:10:32;;;;;;;9.38;5.22;;;21.20;90.40;;;;;;5067557;28;20044;-67
2022/07/20 05:12:57;;;;;;;9.80;4.93;;;21.50;89.60;;;;;;5061963;28;20045;-67
2022/07/20 05:15:23;;;;;;;9.15;5.78;;;21.70;89.20;;;;;;5049242;28;20045;-68
2022/07/20 05:17:50;;;;;;;10.52;4.78;;;21.80;88.60;;;;;;5065494;28;20072;-67
2022/07/20 05:20:16;;;;;;;10.32;4.72;;;21.90;88.10;;;;;;5049238;28;20044;-68
2022/07/20 05:22:42;;;;;;;8.52;5.22;;;22.10;87.30;;;;;;5054250;28;20052;-68
2022/07/20 05:25:08;;;;;;;6.43;4.50;;;22.20;87.10;;;;;;5064427;28;20049;-68
2022/07/20 05:27:33;;;;;;;7.93;4.72;;;22.10;87.80;;;;;;5036319;28;20501;-68
2022/07/20 05:29:59;;;;;;;8.02;5.40;;;22.10;87.90;;;;;;5068322;28;20068;-68
2022/07/20 05:32:25;;;;;;;8.10;4.75;;;22.10;88.30;;;;;;5065681;28;20433;-67
2022/07/20 05:34:50;;;;;;;7.00;4.97;;;22.20;88.30;;;;;;5065648;28;20309;-68
2022/07/20 05:37:16;;;;;;;8.07;5.00;;;22.20;88.10;;;;;;5055763;28;20190;-67
2022/07/20 05:39:42;;;;;;;6.85;4.88;;;22.20;88.30;;;;;;5061325;28;20037;-68
2022/07/20 05:42:07;;;;;;;6.32;4.50;;;22.20;89.30;;;;;;5070507;28;20064;-68
2022/07/20 05:44:33;;;;;;;7.10;5.25;;;22.30;90.10;;;;;;5046086;28;20464;-67
2022/07/20 05:46:59;;;;;;;7.55;4.90;;;22.30;90.40;;;;;;5051507;28;20057;-68
2022/07/20 05:49:25;;;;;;;9.88;4.82;;;22.30;90.60;;;;;;5052834;28;20041;-68
2022/07/20 05:51:50;;;;;;;9.88;5.35;;;22.40;90.50;;;;;;5058804;28;20183;-68
2022/07/20 05:54:16;;;;;;;8.82;5.50;;;22.40;90.70;;;;;;5056030;28;20069;-68
2022/07/20 05:56:42;;;;;;;13.45;5.63;;;22.30;91.00;;;;;;5057375;28;20525;-68
2022/07/20 05:59:07;;;;;;;8.63;5.15;;;22.40;91.30;;;;;;5058352;28;20036;-68
2022/07/20 06:01:34;;;;;;;6.25;4.65;;;22.40;91.30;;;;;;5041895;28;20056;-67
2022/07/20 06:04:00;;;;;;;11.52;5.22;;;22.40;91.60;;;;;;5070863;28;20593;-67
2022/07/20 06:06:25;;;;;;;8.35;5.18;;;22.40;92.10;;;;;;5061520;28;20053;-67
2022/07/20 06:08:51;;;;;;;8.38;5.20;;;22.50;92.20;;;;;;5061511;28;20051;-67
2022/07/20 06:11:17;;;;;;;9.40;4.68;;;22.40;92.30;;;;;;5043234;28;20052;-67
2022/07/20 06:13:43;;;;;;;15.02;6.03;;;22.50;92.30;;;;;;5060111;28;20485;-67
2022/07/20 06:16:08;;;;;;;20.27;7.20;;;22.50;93.20;;;;;;5049038;28;20873;-67
2022/07/20 06:18:34;;;;;;;21.95;6.57;;;22.60;93.90;;;;;;5055913;28;20083;-67
2022/07/20 06:21:00;;;;;;;12.70;6.10;;;22.70;93.70;;;;;;5053190;28;20052;-67
2022/07/20 06:23:25;;;;;;;12.60;6.00;;;22.80;93.50;;;;;;5038224;28;20033;-67
2022/07/20 06:25:51;;;;;;;6.75;5.30;;;22.80;93.40;;;;;;5068463;28;20060;-67
2022/07/20 06:28:17;;;;;;;10.10;5.13;;;22.90;93.20;;;;;;5059956;28;20044;-67
2022/07/20 06:30:42;;;;;;;8.48;5.35;;;23.00;93.30;;;;;;5049673;28;20453;-67
2022/07/20 06:33:08;;;;;;;9.85;5.20;;;23.10;92.60;;;;;;5052312;28;20041;-67
2022/07/20 06:35:36;;;;;;;8.85;5.65;;;23.20;92.90;;;;;;5045139;28;20059;-67
2022/07/20 06:38:02;;;;;;;6.35;4.88;;;23.20;93.10;;;;;;5036006;28;20061;-67
2022/07/20 06:40:28;;;;;;;10.68;5.05;;;23.40;91.30;;;;;;5038227;28;20041;-67
2022/07/20 06:42:53;;;;;;;7.53;5.68;;;23.80;88.10;;;;;;5053376;28;20049;-67
2022/07/20 06:45:19;;;;;;;10.32;5.82;;;24.00;85.70;;;;;;5053085;28;20049;-67
2022/07/20 06:47:46;;;;;;;11.05;5.10;;;24.30;83.80;;;;;;5044412;28;20048;-67
2022/07/20 06:50:12;;;;;;;7.00;5.03;;;24.40;84.10;;;;;;5045196;28;20051;-68
2022/07/20 06:52:37;;;;;;;7.43;5.50;;;24.50;83.30;;;;;;5064079;28;20044;-68
2022/07/20 06:55:04;;;;;;;10.65;5.53;;;24.60;82.20;;;;;;5029478;28;20037;-67
2022/07/20 06:57:30;;;;;;;7.55;4.97;;;24.70;82.80;;;;;;5046963;28;20746;-68
2022/07/20 06:59:56;;;;;;;8.68;5.40;;;25.00;80.30;;;;;;5046335;28;20037;-68
2022/07/20 07:02:22;;;;;;;9.80;6.05;;;25.10;80.40;;;;;;5028148;28;20041;-67
2022/07/20 07:04:48;;;;;;;10.85;5.50;;;25.20;80.20;;;;;;5045960;28;20094;-68
2022/07/20 07:07:14;;;;;;;9.43;5.60;;;25.30;80.10;;;;;;5045535;28;20052;-68
2022/07/20 07:09:39;;;;;;;6.90;5.32;;;25.30;80.40;;;;;;5029832;28;21016;-68
2022/07/20 07:12:06;;;;;;;8.13;5.50;;;25.50;79.10;;;;;;5047680;28;20056;-68
2022/07/20 07:14:31;;;;;;;6.80;5.30;;;25.40;80.50;;;;;;5049637;28;20535;-68
2022/07/20 07:16:57;;;;;;;6.78;5.55;;;25.50;80.20;;;;;;5048905;28;20057;-67
2022/07/20 07:19:23;;;;;;;9.40;5.97;;;25.60;80.20;;;;;;5049124;28;20036;-67
2022/07/20 07:21:49;;;;;;;10.82;6.35;;;25.70;78.60;;;;;;5066262;28;20053;-67
2022/07/20 07:24:15;;;;;;;10.23;5.93;;;25.80;79.00;;;;;;5062579;28;20045;-68
2022/07/20 07:26:41;;;;;;;10.63;5.65;;;25.90;78.50;;;;;;5049836;28;20075;-67
2022/07/20 07:29:07;;;;;;;10.13;5.82;;;25.90;79.30;;;;;;5055784;28;20036;-67
2022/07/20 07:31:33;;;;;;;9.30;5.95;;;25.90;80.00;;;;;;5068305;28;20519;-66
2022/07/20 07:33:59;;;;;;;9.68;6.00;;;26.10;79.10;;;;;;5052768;28;20071;-67
2022/07/20 07:36:25;;;;;;;8.98;6.60;;;26.10;80.10;;;;;;5049305;28;20092;-67
2022/07/20 07:38:50;;;;;;;7.97;6.50;;;26.10;79.60;;;;;;5066628;28;20056;-66
2022/07/20 07:41:16;;;;;;;11.88;6.35;;;26.20;80.20;;;;;;5067348;28;20045;-66
2022/07/20 07:43:42;;;;;;;10.57;6.30;;;26.10;80.80;;;;;;5049466;28;20135;-67
2022/07/20 07:46:07;;;;;;;12.57;6.50;;;26.10;81.80;;;;;;5032951;28;20124;-67
2022/07/20 07:48:34;;;;;;;11.43;6.60;;;26.20;81.30;;;;;;5048493;28;20053;-67
2022/07/20 07:51:00;;;;;;;12.23;6.75;;;26.20;81.30;;;;;;5067181;28;20344;-67
2022/07/20 07:53:26;;;;;;;16.27;7.38;;;26.10;82.20;;;;;;5048803;28;20493;-66
2022/07/20 07:55:52;;;;;;;11.20;6.72;;;26.30;81.60;;;;;;5048795;28;20060;-67
2022/07/20 07:58:17;;;;;;;10.38;7.45;;;26.40;83.40;;;;;;5049004;28;20056;-65
2022/07/20 08:00:43;;;;;;;15.63;7.65;;;26.50;81.20;;;;;;5063995;28;20123;-67
2022/07/20 08:03:09;;;;;;;12.98;8.30;;;26.40;81.90;;;;;;5049310;28;20064;-66
2022/07/20 08:05:36;;;;;;;10.02;7.65;;;26.50;82.00;;;;;;5048990;28;20053;-68
2022/07/20 08:08:07;;;;;;;10.73;7.55;;;26.50;83.20;;;;;;5048507;28;20056;-68
2022/07/20 08:10:33;;;;;;;14.02;7.97;;;26.50;84.40;;;;;;5064215;28;20053;-68
2022/07/20 08:12:59;;;;;;;14.95;9.32;;;26.40;84.30;;;;;;5050057;28;20052;-68
2022/07/20 08:15:24;;;;;;;14.63;8.45;;;26.40;85.00;;;;;;5067441;28;20576;-67
2022/07/20 08:17:50;;;;;;;12.48;9.05;;;26.40;85.40;;;;;;5049373;28;20045;-68
2022/07/20 08:20:21;;;;;;;12.48;9.38;;;26.50;86.60;;;;;;5048934;28;20127;-68
2022/07/20 08:22:47;;;;;;;16.27;8.23;;;26.60;87.30;;;;;;5047270;28;20049;-68
2022/07/20 08:25:13;;;;;;;16.42;10.63;;;26.70;87.70;;;;;;5047740;28;20049;-69
2022/07/20 08:27:38;;;;;;;16.08;10.43;;;26.80;87.80;;;;;;5065176;28;20041;-68
2022/07/20 08:30:05;;;;;;;17.77;10.07;;;26.80;87.80;;;;;;5065120;28;20044;-68
2022/07/20 08:32:31;;;;;;;17.17;11.82;;;26.90;88.90;;;;;;5065859;28;20059;-68
2022/07/20 08:34:57;;;;;;;16.75;11.80;;;27.00;89.30;;;;;;5047890;28;20056;-68
2022/07/20 08:37:22;;;;;;;22.23;13.90;;;27.10;89.50;;;;;;5047345;28;20114;-68
2022/07/20 08:39:48;;;;;;;15.82;12.88;;;27.20;89.70;;;;;;5047880;28;20104;-68
2022/07/20 08:42:14;;;;;;;20.83;13.52;;;27.20;90.70;;;;;;5048745;28;20053;-67
2022/07/20 08:44:44;;;;;;;18.10;14.35;;;27.20;90.70;;;;;;5049334;28;20052;-68
2022/07/20 08:47:14;;;;;;;22.17;15.45;;;27.30;91.20;;;;;;5060692;28;20052;-68
2022/07/20 08:49:49;;;;;;;23.50;18.27;;;27.30;91.30;;;;;;5048336;28;20045;-68
2022/07/20 08:52:16;;;;;;;29.98;21.85;;;27.50;92.50;;;;;;5047889;28;20083;-68
2022/07/20 08:54:42;;;;;;;30.15;20.25;;;27.60;92.40;;;;;;5047997;28;20036;-68
2022/07/20 08:57:12;;;;;;;27.85;19.83;;;27.50;92.70;;;;;;5048438;28;20071;-68
2022/07/20 08:59:38;;;;;;;23.75;20.08;;;27.60;93.30;;;;;;5030276;28;20040;-68
2022/07/20 09:02:07;;;;;;;29.17;22.65;;;27.60;93.30;;;;;;5031172;28;20052;-68
2022/07/20 09:04:52;;;;;;;38.55;22.50;;;27.70;93.30;;;;;;5066332;28;20033;-68
2022/07/20 09:07:42;;;;;;;27.65;22.88;;;27.70;94.10;;;;;;5047945;28;20090;-68
2022/07/20 09:10:14;;;;;;;32.88;22.55;;;27.70;93.80;;;;;;5043929;28;20041;-68
2022/07/20 09:13:02;;;;;;;35.97;24.00;;;27.70;94.40;;;;;;5048316;28;20039;-67
2022/07/20 09:15:47;;;;;;;28.83;23.42;;;27.80;94.80;;;;;;5043407;28;20104;-68
2022/07/20 09:18:26;;;;;;;31.70;23.35;;;27.80;94.80;;;;;;5046281;28;20071;-68
2022/07/20 09:20:56;;;;;;;29.98;22.95;;;28.00;94.40;;;;;;5063206;28;20052;-68
2022/07/20 09:23:43;;;;;;;34.13;23.10;;;28.10;95.00;;;;;;5064575;28;20989;-69
2022/07/20 09:26:12;;;;;;;33.88;24.02;;;28.10;94.60;;;;;;5047465;28;20075;-68
2022/07/20 09:28:40;;;;;;;34.05;23.85;;;28.10;94.10;;;;;;5065910;28;20163;-68
2022/07/20 09:31:26;;;;;;;32.00;23.13;;;28.10;94.20;;;;;;5047062;28;20063;-68
2022/07/20 09:33:53;;;;;;;29.95;23.15;;;28.20;93.60;;;;;;5039665;28;20063;-68
2022/07/20 09:36:21;;;;;;;38.25;23.52;;;28.20;94.10;;;;;;4966747;28;20066;-68
2022/07/20 09:38:47;;;;;;;31.35;24.48;;;28.30;94.00;;;;;;5045540;28;20095;-69
2022/07/20 09:41:24;;;;;;;29.02;23.17;;;28.40;93.80;;;;;;5058925;28;20037;-67
2022/07/20 09:43:50;;;;;;;29.08;24.50;;;28.50;93.40;;;;;;5041019;28;20079;-67
2022/07/20 09:46:18;;;;;;;33.00;23.98;;;28.60;92.70;;;;;;5027014;28;20476;-67
2022/07/20 09:48:50;;;;;;;34.30;25.10;;;28.60;92.10;;;;;;5040982;28;20037;-67
2022/07/20 09:51:33;;;;;;;30.80;23.85;;;28.40;92.30;;;;;;5039353;28;20045;-67
2022/07/20 09:54:01;;;;;;;32.88;24.88;;;28.60;92.40;;;;;;5043996;28;20052;-67
2022/07/20 09:56:27;;;;;;;32.42;25.48;;;28.60;92.50;;;;;;5040834;28;20049;-68
2022/07/20 09:58:55;;;;;;;37.92;26.92;;;28.60;93.00;;;;;;5048117;28;20140;-68
2022/07/20 10:01:27;;;;;;;36.35;27.27;;;28.70;93.20;;;;;;5036589;28;20068;-68
2022/07/20 10:03:55;;;;;;;35.97;27.05;;;28.70;92.90;;;;;;5042147;28;20084;-67
2022/07/20 10:06:23;;;;;;;35.40;27.08;;;28.60;92.10;;;;;;5025103;28;20057;-68
2022/07/20 10:08:49;;;;;;;34.25;26.92;;;28.60;92.30;;;;;;5041184;28;20156;-68
2022/07/20 10:11:17;;;;;;;39.63;27.63;;;28.60;92.20;;;;;;5039445;28;20131;-67
2022/07/20 10:13:44;;;;;;;32.78;25.00;;;28.70;92.70;;;;;;5041861;28;20122;-69
2022/07/20 10:16:31;;;;;;;25.77;22.70;;;28.80;90.60;;;;;;5043258;28;20168;-67
2022/07/20 10:18:58;;;;;;;28.95;24.15;;;28.90;89.00;;;;;;5025417;28;20112;-67
2022/07/20 10:21:42;;;;;;;29.30;23.67;;;29.00;90.00;;;;;;5042577;28;20050;-68
2022/07/20 10:24:14;;;;;;;27.30;21.90;;;29.10;90.00;;;;;;5048744;28;20053;-68
2022/07/20 10:26:40;;;;;;;27.13;21.35;;;29.30;86.50;;;;;;5035745;28;20145;-68
2022/07/20 10:29:06;;;;;;;25.45;22.67;;;29.20;86.40;;;;;;5045813;28;20041;-67
2022/07/20 10:31:51;;;;;;;26.45;21.45;;;29.10;87.00;;;;;;5039175;28;20079;-67
2022/07/20 10:34:54;;;;;;;27.85;21.10;;;29.10;86.20;;;;;;5034306;28;20040;-67
2022/07/20 10:37:39;;;;;;;24.67;19.45;;;29.30;86.70;;;;;;4947085;28;20669;-69
2022/07/20 10:40:07;;;;;;;25.08;19.45;;;29.30;85.10;;;;;;4959839;28;20045;-70
2022/07/20 10:42:37;;;;;;;23.00;19.88;;;29.30;85.10;;;;;;4958531;28;20090;-69
2022/07/20 10:45:25;;;;;;;22.42;17.95;;;29.30;85.30;;;;;;4966094;28;20053;-69
2022/07/20 10:47:55;;;;;;;23.92;18.10;;;29.20;83.10;;;;;;4956814;28;20058;-67
2022/07/20 10:50:27;;;;;;;25.55;18.55;;;29.30;85.70;;;;;;4983007;28;20078;-67
2022/07/20 10:53:23;;;;;;;19.88;16.98;;;29.30;84.20;;;;;;4965808;28;20050;-67
2022/07/20 10:55:55;;;;;;;20.58;17.45;;;29.40;83.60;;;;;;4917982;29;20083;-66
2022/07/20 10:58:27;;;;;;;24.58;17.15;;;29.40;83.50;;;;;;4895708;29;20064;-71
2022/07/20 11:00:56;;;;;;;24.13;19.08;;;29.40;84.60;;;;;;4902286;29;20060;-67
2022/07/20 11:03:27;;;;;;;23.35;18.42;;;29.40;83.80;;;;;;4908577;29;20096;-66
2022/07/20 11:06:00;;;;;;;23.33;17.60;;;29.40;84.20;;;;;;4903972;29;20051;-66
2022/07/20 11:08:26;;;;;;;20.38;17.33;;;29.40;84.10;;;;;;4873631;29;20059;-66
2022/07/20 11:10:52;;;;;;;24.35;18.80;;;29.40;84.90;;;;;;4903428;29;20040;-66
2022/07/20 11:13:18;;;;;;;21.48;17.52;;;29.40;84.80;;;;;;4944580;28;20094;-66
2022/07/20 11:15:46;;;;;;;19.88;14.60;;;29.50;84.00;;;;;;4992408;28;20051;-66
2022/07/20 11:18:14;;;;;;;17.70;13.68;;;29.50;83.30;;;;;;4956008;28;20094;-67
2022/07/20 11:20:47;;;;;;;17.42;15.23;;;29.50;80.00;;;;;;4977638;28;20062;-66
2022/07/20 11:23:15;;;;;;;24.08;15.38;;;29.60;83.40;;;;;;4987710;28;20596;-67
2022/07/20 11:25:45;;;;;;;17.70;12.10;;;29.60;82.50;;;;;;4979192;28;20407;-67
2022/07/20 11:28:11;;;;;;;15.02;11.93;;;29.70;80.10;;;;;;4966745;28;20054;-65
2022/07/20 11:30:38;;;;;;;15.35;12.23;;;29.70;79.80;;;;;;4981184;28;20050;-65
2022/07/20 11:33:04;;;;;;;17.27;14.35;;;29.80;79.80;;;;;;5037082;28;20140;-66
2022/07/20 11:35:30;;;;;;;20.25;13.60;;;29.90;80.90;;;;;;5041949;28;20118;-67
2022/07/20 11:37:56;;;;;;;19.17;15.88;;;29.90;81.50;;;;;;5061827;28;20057;-62
2022/07/20 11:40:22;;;;;;;19.17;14.55;;;29.90;81.50;;;;;;5061928;28;20076;-65
2022/07/20 11:43:06;;;;;;;17.15;14.13;;;29.90;82.10;;;;;;5063099;28;20055;-65
2022/07/20 11:45:32;;;;;;;19.23;14.82;;;30.00;83.20;;;;;;5058731;28;20037;-65
2022/07/20 11:47:58;;;;;;;17.92;14.18;;;30.00;84.50;;;;;;5050727;28;20072;-65
2022/07/20 11:50:32;;;;;;;18.35;13.27;;;30.10;83.50;;;;;;5046268;28;20095;-65
2022/07/20 11:52:58;;;;;;;16.55;12.45;;;30.10;82.10;;;;;;5063013;28;20115;-65
2022/07/20 11:55:36;;;;;;;17.17;11.80;;;30.20;82.60;;;;;;5062845;28;20044;-65
2022/07/20 11:58:02;;;;;;;18.00;11.40;;;30.10;80.90;;;;;;5046323;28;20095;-65
2022/07/20 12:00:29;;;;;;;17.67;11.90;;;30.10;80.80;;;;;;5066798;28;20501;-65
2022/07/20 12:02:57;;;;;;;16.40;12.52;;;30.10;81.10;;;;;;5048553;28;20053;-65
2022/07/20 12:05:23;;;;;;;16.70;11.65;;;30.10;82.90;;;;;;5062096;28;20493;-65
2022/07/20 12:08:07;;;;;;;15.70;12.32;;;30.00;82.40;;;;;;5066578;28;20107;-65
2022/07/20 12:10:34;;;;;;;15.32;11.73;;;29.90;82.00;;;;;;5067010;28;20072;-65
2022/07/20 12:13:05;;;;;;;17.17;11.35;;;30.00;82.00;;;;;;5050402;28;20048;-65
2022/07/20 12:15:31;;;;;;;16.65;13.13;;;30.10;81.50;;;;;;5056189;28;20051;-65
2022/07/20 12:17:57;;;;;;;17.05;12.05;;;30.00;81.10;;;;;;5040466;28;20049;-65
2022/07/20 12:20:24;;;;;;;14.77;10.43;;;29.90;79.50;;;;;;5050866;28;20041;-65
2022/07/20 12:22:58;;;;;;;14.68;10.70;;;29.90;80.10;;;;;;5049595;28;20053;-65
2022/07/20 12:25:38;;;;;;;12.60;10.55;;;29.90;78.90;;;;;;5053061;28;20037;-65
2022/07/20 12:28:05;;;;;;;12.48;10.23;;;30.00;79.50;;;;;;5065671;28;20075;-65
2022/07/20 12:30:37;;;;;;;22.20;11.00;;;30.20;80.20;;;;;;5054444;28;20060;-65
2022/07/20 12:33:12;;;;;;;12.73;10.20;;;30.20;79.20;;;;;;5065847;28;20053;-65
2022/07/20 12:35:40;;;;;;;12.68;10.45;;;30.40;77.80;;;;;;5065868;28;20063;-65
2022/07/20 12:38:07;;;;;;;14.45;11.13;;;30.40;78.00;;;;;;5059015;28;20064;-65
2022/07/20 12:40:37;;;;;;;13.32;10.60;;;30.40;78.40;;;;;;5065379;28;20036;-65
2022/07/20 12:43:04;;;;;;;11.68;10.07;;;30.50;77.70;;;;;;5052341;28;20156;-65
2022/07/20 12:45:29;;;;;;;13.73;9.13;;;30.50;77.60;;;;;;5054566;28;20041;-65